createdAt,value
2018-02-12T00:01:48.196Z,89.63
2018-02-12T00:04:16.314Z,88.68
2018-02-12T00:06:44.429Z,88.99
2018-02-12T00:09:12.539Z,90.04
2018-02-12T00:11:40.667Z,90.92
2018-02-12T00:14:08.768Z,90.08
2018-02-12T00:16:36.963Z,90.40
2018-02-12T00:19:05.073Z,90.72
2018-02-12T00:21:33.309Z,90.94
2018-02-12T00:24:01.485Z,91.26
2018-02-12T00:26:29.570Z,91.12
2018-02-12T00:28:57.701Z,90.76
2018-02-12T00:31:25.808Z,91.10
2018-02-12T00:33:53.941Z,92.14
2018-02-12T00:36:22.045Z,91.38
2018-02-12T00:38:50.152Z,91.89
2018-02-12T00:41:18.262Z,91.57
2018-02-12T00:43:46.379Z,91.81
2018-02-12T00:46:14.527Z,91.29
2018-02-12T00:48:42.630Z,91.96
2018-02-12T00:51:10.750Z,91.92
2018-02-12T00:53:38.858Z,91.29
2018-02-12T00:56:06.984Z,91.22
2018-02-12T00:58:35.124Z,90.96
2018-02-12T01:01:03.214Z,91.02
2018-02-12T01:03:31.376Z,91.08
2018-02-12T01:05:59.469Z,91.32
2018-02-12T01:08:30.880Z,91.16
2018-02-12T01:10:58.978Z,91.47
2018-02-12T01:13:27.105Z,91.83
2018-02-12T01:15:55.215Z,91.62
2018-02-12T01:18:23.318Z,92.00
2018-02-12T01:20:51.438Z,91.89
2018-02-12T01:23:19.579Z,91.26
2018-02-12T01:25:47.738Z,91.74
2018-02-12T01:28:15.851Z,91.13
2018-02-12T01:30:43.985Z,91.42
2018-02-12T01:33:12.130Z,91.14
2018-02-12T01:35:40.387Z,90.87
2018-02-12T01:38:08.513Z,91.18
2018-02-12T01:40:36.615Z,91.54
2018-02-12T01:43:04.737Z,91.50
2018-02-12T01:45:32.852Z,91.51
2018-02-12T01:48:00.963Z,91.58
2018-02-12T01:50:29.073Z,91.66
2018-02-12T01:52:57.199Z,91.70
2018-02-12T01:55:25.313Z,91.22
2018-02-12T01:57:53.421Z,91.27
2018-02-12T02:00:21.544Z,91.30
2018-02-12T02:02:50.589Z,90.92
2018-02-12T02:05:19.139Z,91.39
2018-02-12T02:07:47.263Z,91.59
2018-02-12T02:10:15.370Z,91.01
2018-02-12T02:12:43.489Z,90.89
2018-02-12T02:15:11.612Z,91.11
2018-02-12T02:17:39.724Z,91.25
2018-02-12T02:20:07.830Z,92.37
2018-02-12T02:22:35.942Z,91.10
2018-02-12T02:25:04.069Z,91.39
2018-02-12T02:27:32.182Z,91.82
2018-02-12T02:30:00.290Z,91.29
2018-02-12T02:32:28.403Z,91.30
2018-02-12T02:34:56.502Z,91.47
2018-02-12T02:37:24.619Z,91.70
2018-02-12T02:39:52.715Z,91.70
2018-02-12T02:42:20.815Z,91.94
2018-02-12T02:44:49.772Z,91.86
2018-02-12T02:47:17.890Z,92.28
2018-02-12T02:49:46.595Z,92.00
2018-02-12T02:52:14.763Z,92.09
2018-02-12T02:54:42.879Z,92.14
2018-02-12T02:57:11.010Z,91.51
2018-02-12T02:59:39.112Z,91.29
2018-02-12T03:02:07.229Z,91.27
2018-02-12T03:04:35.336Z,90.52
2018-02-12T03:07:03.443Z,90.69
2018-02-12T03:09:31.565Z,90.49
2018-02-12T03:11:59.688Z,90.48
2018-02-12T03:14:27.789Z,90.76
2018-02-12T03:16:55.920Z,90.73
2018-02-12T03:19:24.023Z,90.57
2018-02-12T03:21:52.165Z,90.86
2018-02-12T03:24:20.227Z,91.02
2018-02-12T03:26:48.330Z,90.58
2018-02-12T03:29:16.462Z,90.42
2018-02-12T03:31:44.573Z,90.47
2018-02-12T03:34:12.685Z,90.93
2018-02-12T03:36:40.793Z,90.43
2018-02-12T03:39:08.895Z,90.45
2018-02-12T03:41:37.098Z,90.21
2018-02-12T03:44:05.205Z,89.97
2018-02-12T03:46:33.310Z,90.29
2018-02-12T03:49:01.407Z,90.28
2018-02-12T03:51:29.536Z,90.25
2018-02-12T03:53:57.666Z,89.96
2018-02-12T03:56:25.862Z,90.06
2018-02-12T03:58:53.946Z,89.82
2018-02-12T04:01:22.060Z,89.94
2018-02-12T04:03:50.180Z,89.21
2018-02-12T04:06:18.301Z,89.36
2018-02-12T04:08:46.421Z,90.45
2018-02-12T04:11:14.538Z,89.90
2018-02-12T04:13:42.654Z,89.76
2018-02-12T04:16:10.773Z,89.72
2018-02-12T04:18:38.905Z,89.83
2018-02-12T04:21:06.990Z,90.10
2018-02-12T04:23:35.086Z,89.49
2018-02-12T04:26:03.206Z,89.84
2018-02-12T04:28:31.299Z,89.27
2018-02-12T04:30:59.425Z,89.64
2018-02-12T04:33:27.518Z,89.25
2018-02-12T04:35:55.642Z,89.28
2018-02-12T04:38:23.748Z,89.02
2018-02-12T04:40:51.852Z,89.51
2018-02-12T04:43:19.964Z,89.21
2018-02-12T04:45:48.077Z,90.03
2018-02-12T04:48:16.194Z,89.91
2018-02-12T04:50:44.398Z,89.33
2018-02-12T04:53:12.525Z,89.52
2018-02-12T04:55:40.636Z,89.53
2018-02-12T04:58:08.773Z,89.25
2018-02-12T05:00:36.899Z,89.01
2018-02-12T05:03:04.990Z,88.48
2018-02-12T05:05:33.105Z,89.31
2018-02-12T05:08:01.206Z,89.05
2018-02-12T05:10:29.315Z,88.23
2018-02-12T05:12:57.420Z,88.36
2018-02-12T05:15:25.533Z,87.86
2018-02-12T05:17:53.697Z,88.06
2018-02-12T05:20:21.790Z,88.07
2018-02-12T05:22:49.901Z,87.48
2018-02-12T05:25:21.485Z,87.94
2018-02-12T05:27:49.583Z,88.44
2018-02-12T05:30:17.680Z,87.84
2018-02-12T05:32:45.794Z,87.77
2018-02-12T05:35:13.896Z,88.22
2018-02-12T05:37:42.013Z,88.12
2018-02-12T05:40:10.137Z,87.72
2018-02-12T05:42:38.248Z,87.77
2018-02-12T05:45:06.354Z,88.36
2018-02-12T05:47:34.465Z,88.17
2018-02-12T05:50:02.584Z,88.34
2018-02-12T05:52:30.693Z,88.06
2018-02-12T05:54:58.808Z,88.20
2018-02-12T05:57:26.922Z,87.59
2018-02-12T05:59:55.031Z,87.33
2018-02-12T06:02:23.136Z,87.42
2018-02-12T06:04:51.244Z,86.97
2018-02-12T06:07:19.351Z,87.57
2018-02-12T06:09:47.481Z,87.38
2018-02-12T06:12:15.587Z,86.79
2018-02-12T06:14:43.686Z,87.16
2018-02-12T06:17:11.800Z,86.86
2018-02-12T06:19:39.976Z,86.93
2018-02-12T06:22:08.083Z,86.92
2018-02-12T06:24:36.202Z,86.93
2018-02-12T06:27:04.316Z,86.71
2018-02-12T06:29:32.437Z,87.15
2018-02-12T06:32:00.545Z,86.56
2018-02-12T06:34:28.653Z,87.26
2018-02-12T06:36:56.784Z,87.23
2018-02-12T06:39:24.887Z,87.14
2018-02-12T06:41:53.083Z,86.78
2018-02-12T06:44:21.207Z,86.68
2018-02-12T06:46:49.319Z,86.44
2018-02-12T06:49:17.410Z,86.92
2018-02-12T06:51:45.545Z,87.01
2018-02-12T06:54:13.644Z,87.30
2018-02-12T06:56:41.750Z,86.71
2018-02-12T06:59:09.894Z,86.74
2018-02-12T07:01:38.012Z,86.79
2018-02-12T07:04:06.120Z,87.46
2018-02-12T07:06:34.233Z,86.98
2018-02-12T07:09:02.332Z,87.40
2018-02-12T07:11:30.428Z,87.41
2018-02-12T07:13:58.550Z,87.45
2018-02-12T07:16:26.671Z,87.06
2018-02-12T07:18:54.771Z,86.89
2018-02-12T07:21:22.887Z,87.00
2018-02-12T07:23:50.984Z,86.72
2018-02-12T07:26:19.074Z,87.07
2018-02-12T07:28:47.247Z,87.25
2018-02-12T07:31:15.365Z,86.28
2018-02-12T07:33:43.462Z,87.69
2018-02-12T07:36:11.575Z,87.28
2018-02-12T07:38:39.675Z,87.08
2018-02-12T07:41:07.849Z,87.16
2018-02-12T07:43:35.957Z,86.92
2018-02-12T07:46:04.092Z,86.87
2018-02-12T07:48:32.195Z,86.71
2018-02-12T07:51:00.309Z,85.70
2018-02-12T07:53:28.404Z,85.49
2018-02-12T07:55:56.532Z,85.96
2018-02-12T07:58:24.645Z,85.71
2018-02-12T08:00:52.739Z,86.56
2018-02-12T08:03:20.871Z,86.13
2018-02-12T08:05:48.985Z,85.60
2018-02-12T08:08:17.098Z,85.97
2018-02-12T08:10:45.208Z,86.63
2018-02-12T08:13:13.319Z,85.90
2018-02-12T08:15:41.432Z,85.85
2018-02-12T08:18:09.672Z,85.47
2018-02-12T08:20:37.810Z,84.76
2018-02-12T08:23:05.906Z,83.42
2018-02-12T08:25:34.064Z,84.77
2018-02-12T08:28:02.140Z,84.43
2018-02-12T08:30:30.244Z,84.16
2018-02-12T08:32:58.376Z,84.55
2018-02-12T08:35:26.491Z,84.07
2018-02-12T08:37:54.600Z,83.97
2018-02-12T08:40:22.721Z,84.58
2018-02-12T08:42:50.844Z,83.22
2018-02-12T08:45:21.962Z,82.81
2018-02-12T08:47:50.082Z,83.27
2018-02-12T08:50:18.179Z,82.49
2018-02-12T08:52:46.309Z,80.97
2018-02-12T08:55:14.429Z,80.12
2018-02-12T08:57:42.537Z,79.76
2018-02-12T09:00:10.668Z,79.94
2018-02-12T09:02:38.771Z,81.48
2018-02-12T09:05:06.907Z,81.12
2018-02-12T09:07:35.014Z,82.01
2018-02-12T09:10:03.127Z,81.83
2018-02-12T09:12:31.246Z,81.08
2018-02-12T09:14:59.331Z,82.24
2018-02-12T09:17:27.447Z,80.78
2018-02-12T09:19:55.580Z,80.67
2018-02-12T09:22:23.693Z,80.74
2018-02-12T09:24:51.810Z,79.69
2018-02-12T09:27:19.940Z,79.47
2018-02-12T09:29:48.031Z,80.54
2018-02-12T09:32:16.145Z,79.26
2018-02-12T09:34:44.243Z,78.10
2018-02-12T09:37:12.375Z,77.04
2018-02-12T09:39:40.492Z,78.19
2018-02-12T09:42:08.657Z,77.39
2018-02-12T09:44:36.813Z,78.23
2018-02-12T09:47:04.917Z,77.84
2018-02-12T09:49:33.046Z,77.85
2018-02-12T09:52:04.348Z,77.22
2018-02-12T09:54:32.466Z,77.34
2018-02-12T09:57:00.590Z,76.48
2018-02-12T09:59:28.699Z,75.08
2018-02-12T10:01:56.809Z,74.12
2018-02-12T10:04:24.909Z,73.88
2018-02-12T10:06:53.025Z,72.58
2018-02-12T10:09:21.158Z,73.41
2018-02-12T10:11:49.315Z,72.22
2018-02-12T10:14:17.382Z,72.80
2018-02-12T10:16:45.553Z,73.32
2018-02-12T10:19:13.675Z,74.47
2018-02-12T10:21:41.987Z,74.96
2018-02-12T10:24:10.051Z,74.24
2018-02-12T10:26:38.169Z,74.60
2018-02-12T10:29:06.722Z,73.67
2018-02-12T10:31:34.829Z,72.92
2018-02-12T10:34:02.957Z,73.66
2018-02-12T10:36:31.068Z,78.00
2018-02-12T10:38:59.194Z,63.94
2018-02-12T10:41:27.311Z,68.64
2018-02-12T10:43:55.433Z,71.86
2018-02-12T10:46:23.558Z,71.07
2018-02-12T10:48:51.673Z,70.30
2018-02-12T10:51:19.800Z,71.54
2018-02-12T10:53:47.899Z,70.99
2018-02-12T10:56:16.029Z,69.56
2018-02-12T10:58:44.125Z,69.68
2018-02-12T11:01:15.486Z,68.72
2018-02-12T11:03:43.598Z,68.62
2018-02-12T11:06:11.759Z,69.25
2018-02-12T11:08:39.833Z,69.93
2018-02-12T11:11:07.961Z,68.62
2018-02-12T11:13:36.077Z,69.73
2018-02-12T11:16:04.182Z,69.65
2018-02-12T11:18:32.313Z,68.78
2018-02-12T11:21:00.432Z,69.86
2018-02-12T11:23:28.544Z,69.36
2018-02-12T11:25:56.651Z,69.42
2018-02-12T11:28:24.738Z,68.02
2018-02-12T11:30:52.856Z,68.26
2018-02-12T11:33:20.966Z,67.01
2018-02-12T11:35:49.577Z,66.88
2018-02-12T11:38:17.690Z,67.38
2018-02-12T11:40:45.798Z,68.99
2018-02-12T11:43:13.903Z,68.11
2018-02-12T11:45:42.032Z,67.03
2018-02-12T11:48:10.134Z,65.18
2018-02-12T11:50:38.236Z,63.56
2018-02-12T11:53:06.604Z,63.02
2018-02-12T11:55:34.715Z,62.43
2018-02-12T11:58:02.843Z,61.02
2018-02-12T12:00:30.942Z,61.05
2018-02-12T12:02:59.082Z,62.01
2018-02-12T12:05:27.206Z,60.34
2018-02-12T12:07:55.321Z,61.34
2018-02-12T12:10:23.435Z,59.36
2018-02-12T12:12:51.625Z,60.38
2018-02-12T12:15:19.840Z,59.05
2018-02-12T12:17:47.950Z,59.99
2018-02-12T12:20:16.071Z,61.35
2018-02-12T12:22:44.195Z,60.95
2018-02-12T12:25:12.318Z,61.85
2018-02-12T12:27:40.446Z,60.40
2018-02-12T12:30:08.559Z,60.22
2018-02-12T12:32:36.686Z,59.69
2018-02-12T12:35:04.806Z,60.08
2018-02-12T12:37:32.943Z,59.10
2018-02-12T12:40:01.054Z,60.33
2018-02-12T12:42:29.174Z,59.45
2018-02-12T12:44:57.264Z,59.94
2018-02-12T12:47:25.396Z,58.85
2018-02-12T12:49:53.526Z,59.01
2018-02-12T12:52:21.629Z,57.73
2018-02-12T12:54:49.809Z,59.40
2018-02-12T12:57:17.926Z,58.40
2018-02-12T12:59:46.039Z,56.95
2018-02-12T13:02:14.168Z,55.01
2018-02-12T13:04:42.278Z,55.20
2018-02-12T13:07:10.403Z,56.36
2018-02-12T13:09:38.519Z,55.77
2018-02-12T13:12:06.628Z,55.95
2018-02-12T13:14:34.751Z,56.44
2018-02-12T13:17:02.898Z,56.82
2018-02-12T13:19:31.015Z,57.72
2018-02-12T13:21:59.119Z,58.81
2018-02-12T13:24:27.574Z,57.89
2018-02-12T13:26:55.685Z,57.18
2018-02-12T13:29:23.791Z,56.43
2018-02-12T13:31:51.946Z,56.42
2018-02-12T13:34:20.055Z,57.52
2018-02-12T13:36:48.183Z,56.70
2018-02-12T13:39:16.293Z,54.50
2018-02-12T13:41:44.412Z,54.76
2018-02-12T13:44:12.510Z,56.23
2018-02-12T13:46:40.623Z,56.03
2018-02-12T13:49:08.794Z,56.83
2018-02-12T13:51:37.094Z,57.15
2018-02-12T13:54:05.214Z,56.91
2018-02-12T13:56:33.326Z,58.06
2018-02-12T13:59:01.465Z,59.22
2018-02-12T14:01:29.564Z,58.97
2018-02-12T14:03:57.690Z,60.69
2018-02-12T14:06:25.807Z,60.54
2018-02-12T14:08:53.912Z,61.73
2018-02-12T14:11:22.099Z,61.20
2018-02-12T14:13:50.187Z,61.66
2018-02-12T14:16:18.344Z,61.49
2018-02-12T14:18:46.454Z,61.49
2018-02-12T14:21:14.562Z,61.61
2018-02-12T14:23:42.677Z,60.90
2018-02-12T14:26:10.802Z,62.08
2018-02-12T14:28:38.918Z,61.21
2018-02-12T14:31:07.015Z,61.01
2018-02-12T14:33:35.137Z,59.39
2018-02-12T14:36:03.257Z,62.46
2018-02-12T14:38:31.343Z,63.30
2018-02-12T14:40:59.443Z,62.12
2018-02-12T14:43:27.561Z,61.86
2018-02-12T14:45:55.670Z,62.54
2018-02-12T14:48:23.785Z,62.99
2018-02-12T14:50:51.890Z,64.62
2018-02-12T14:53:20.018Z,61.77
2018-02-12T14:55:48.119Z,62.30
2018-02-12T14:58:16.254Z,61.68
2018-02-12T15:00:44.354Z,62.19
2018-02-12T15:03:12.500Z,60.52
2018-02-12T15:05:40.620Z,61.76
2018-02-12T15:08:08.756Z,60.77
2018-02-12T15:10:36.854Z,60.80
2018-02-12T15:13:04.952Z,61.47
2018-02-12T15:15:33.097Z,60.62
2018-02-12T15:18:01.289Z,60.93
2018-02-12T15:20:29.330Z,61.42
2018-02-12T15:22:57.450Z,59.91
2018-02-12T15:25:29.317Z,59.07
2018-02-12T15:27:57.429Z,58.93
2018-02-12T15:30:25.545Z,57.84
2018-02-12T15:32:53.665Z,59.56
2018-02-12T15:35:21.750Z,56.31
2018-02-12T15:37:49.851Z,57.13
2018-02-12T15:40:17.983Z,57.71
2018-02-12T15:42:46.213Z,58.24
2018-02-12T15:45:14.322Z,58.42
2018-02-12T15:47:42.507Z,59.56
2018-02-12T15:50:10.566Z,59.99
2018-02-12T15:52:38.677Z,60.23
2018-02-12T15:55:06.795Z,60.69
2018-02-12T15:57:34.905Z,60.69
2018-02-12T16:00:03.022Z,61.45
2018-02-12T16:02:34.489Z,62.48
2018-02-12T16:05:02.631Z,63.41
2018-02-12T16:07:30.744Z,63.79
2018-02-12T16:09:58.874Z,64.34
2018-02-12T16:12:27.007Z,64.34
2018-02-12T16:14:55.125Z,64.47
2018-02-12T16:17:23.223Z,65.40
2018-02-12T16:19:51.341Z,65.54
2018-02-12T16:22:19.447Z,66.19
2018-02-12T16:24:48.397Z,66.08
2018-02-12T16:27:16.502Z,67.31
2018-02-12T16:29:44.608Z,66.88
2018-02-12T16:32:12.732Z,66.37
2018-02-12T16:34:40.831Z,66.89
2018-02-12T16:37:08.953Z,66.73
2018-02-12T16:39:37.060Z,67.19
2018-02-12T16:42:05.227Z,67.71
2018-02-12T16:44:33.335Z,67.76
2018-02-12T16:47:04.841Z,67.71
2018-02-12T16:49:33.027Z,67.90
2018-02-12T16:52:01.137Z,68.10
2018-02-12T16:54:29.274Z,68.91
2018-02-12T16:56:57.398Z,69.20
2018-02-12T16:59:25.507Z,69.19
2018-02-12T17:01:53.602Z,69.37
2018-02-12T17:04:21.715Z,69.44
2018-02-12T17:06:49.836Z,69.40
2018-02-12T17:09:17.967Z,69.76
2018-02-12T17:11:46.064Z,69.43
2018-02-12T17:14:14.162Z,70.14
2018-02-12T17:16:42.266Z,70.11
2018-02-12T17:19:10.375Z,70.94
2018-02-12T17:21:38.571Z,69.92
2018-02-12T17:24:06.868Z,70.28
2018-02-12T17:26:34.749Z,69.95
2018-02-12T17:29:02.878Z,70.51
2018-02-12T17:31:30.998Z,70.66
2018-02-12T17:33:59.120Z,70.80
2018-02-12T17:36:27.219Z,71.09
2018-02-12T17:38:55.341Z,70.91
2018-02-12T17:41:23.459Z,71.04
2018-02-12T17:43:51.575Z,71.49
2018-02-12T17:46:19.670Z,71.60
2018-02-12T17:48:47.792Z,71.61
2018-02-12T17:51:15.896Z,71.15
2018-02-12T17:53:44.011Z,71.75
2018-02-12T17:56:12.122Z,71.78
2018-02-12T17:58:40.236Z,72.35
2018-02-12T18:01:08.352Z,72.28
2018-02-12T18:03:36.498Z,72.95
2018-02-12T18:06:04.603Z,72.65
2018-02-12T18:08:32.727Z,72.58
2018-02-12T18:11:00.865Z,72.24
2018-02-12T18:13:28.980Z,72.42
2018-02-12T18:15:57.094Z,72.27
2018-02-12T18:18:25.243Z,73.00
2018-02-12T18:20:53.354Z,72.89
2018-02-12T18:23:21.478Z,72.89
2018-02-12T18:25:49.584Z,72.81
2018-02-12T18:28:17.691Z,72.46
2018-02-12T18:30:45.796Z,73.13
2018-02-12T18:33:13.900Z,73.58
2018-02-12T18:35:42.022Z,73.25
2018-02-12T18:38:10.151Z,73.22
2018-02-12T18:40:38.251Z,72.93
2018-02-12T18:43:06.372Z,73.73
2018-02-12T18:45:34.471Z,73.76
2018-02-12T18:48:02.597Z,73.98
2018-02-12T18:50:30.709Z,73.51
2018-02-12T18:52:58.853Z,73.46
2018-02-12T18:55:26.950Z,73.83
2018-02-12T18:57:55.074Z,73.32
2018-02-12T19:00:23.187Z,73.01
2018-02-12T19:02:51.298Z,73.67
2018-02-12T19:05:19.416Z,74.32
2018-02-12T19:07:47.507Z,74.08
2018-02-12T19:10:15.617Z,73.16
2018-02-12T19:12:43.718Z,73.51
2018-02-12T19:15:11.888Z,74.06
2018-02-12T19:17:39.967Z,74.55
2018-02-12T19:20:08.106Z,74.63
2018-02-12T19:22:36.217Z,74.47
2018-02-12T19:25:04.396Z,74.05
2018-02-12T19:27:32.510Z,74.43
2018-02-12T19:30:00.624Z,74.63
2018-02-12T19:32:28.775Z,74.73
2018-02-12T19:34:56.923Z,75.09
2018-02-12T19:37:25.033Z,75.35
2018-02-12T19:39:53.162Z,75.16
2018-02-12T19:42:21.462Z,75.79
2018-02-12T19:44:49.597Z,75.58
2018-02-12T19:47:17.698Z,76.13
2018-02-12T19:49:45.829Z,76.53
2018-02-12T19:52:17.287Z,76.43
2018-02-12T19:54:45.418Z,76.84
2018-02-12T19:57:13.520Z,76.95
2018-02-12T19:59:41.877Z,77.08
2018-02-12T20:02:10.055Z,77.11
2018-02-12T20:04:38.296Z,77.44
2018-02-12T20:07:06.597Z,78.00
2018-02-12T20:09:34.953Z,78.32
2018-02-12T20:12:03.343Z,79.07
2018-02-12T20:14:31.888Z,78.77
2018-02-12T20:17:00.044Z,78.65
2018-02-12T20:19:28.381Z,78.87
2018-02-12T20:21:56.600Z,78.71
2018-02-12T20:24:24.761Z,78.94
2018-02-12T20:26:52.925Z,79.33
2018-02-12T20:29:24.787Z,78.56
2018-02-12T20:31:52.923Z,79.41
2018-02-12T20:34:21.013Z,78.97
2018-02-12T20:36:49.133Z,79.17
2018-02-12T20:39:17.467Z,78.75
2018-02-12T20:41:46.303Z,79.21
2018-02-12T20:44:14.500Z,79.55
2018-02-12T20:46:42.630Z,79.48
2018-02-12T20:49:10.773Z,79.76
2018-02-12T20:51:38.992Z,79.48
2018-02-12T20:54:07.118Z,80.22
2018-02-12T20:56:35.241Z,80.34
2018-02-12T20:59:03.365Z,79.94
2018-02-12T21:01:31.482Z,79.89
2018-02-12T21:03:59.610Z,79.76
2018-02-12T21:06:27.731Z,80.18
2018-02-12T21:08:55.914Z,80.35
2018-02-12T21:11:24.039Z,80.45
2018-02-12T21:13:52.171Z,80.84
2018-02-12T21:16:20.305Z,80.98
2018-02-12T21:18:48.408Z,80.15
2018-02-12T21:21:16.525Z,80.45
2018-02-12T21:23:44.683Z,80.63
2018-02-12T21:26:12.738Z,80.64
2018-02-12T21:28:40.858Z,80.07
2018-02-12T21:31:08.976Z,80.57
2018-02-12T21:33:37.107Z,81.25
2018-02-12T21:36:05.226Z,80.76
2018-02-12T21:38:33.327Z,81.25
2018-02-12T21:41:01.449Z,81.41
2018-02-12T21:43:29.575Z,81.45
2018-02-12T21:45:57.687Z,81.24
2018-02-12T21:48:25.796Z,81.28
2018-02-12T21:50:53.898Z,81.47
2018-02-12T21:53:22.001Z,81.50
2018-02-12T21:55:50.130Z,80.92
2018-02-12T21:58:18.239Z,81.56
2018-02-12T22:00:46.373Z,80.97
2018-02-12T22:03:14.481Z,81.33
2018-02-12T22:05:42.605Z,80.88
2018-02-12T22:08:10.720Z,80.72
2018-02-12T22:10:38.818Z,81.17
2018-02-12T22:13:06.945Z,80.51
2018-02-12T22:15:38.227Z,81.00
2018-02-12T22:18:06.348Z,81.17
2018-02-12T22:20:34.459Z,81.25
2018-02-12T22:23:02.590Z,80.54
2018-02-12T22:25:30.765Z,80.86
2018-02-12T22:27:58.882Z,80.83
2018-02-12T22:30:27.003Z,81.03
2018-02-12T22:32:55.126Z,80.51
2018-02-12T22:35:23.231Z,80.65
2018-02-12T22:37:51.776Z,80.63
2018-02-12T22:40:19.830Z,80.69
2018-02-12T22:42:47.948Z,81.02
2018-02-12T22:45:16.061Z,80.86
2018-02-12T22:47:44.171Z,80.99
2018-02-12T22:50:12.310Z,80.94
2018-02-12T22:52:43.631Z,80.14
2018-02-12T22:55:11.737Z,80.43
2018-02-12T22:57:39.836Z,80.01
2018-02-12T23:00:07.966Z,80.40
2018-02-12T23:02:36.081Z,80.88
2018-02-12T23:05:04.202Z,81.04
2018-02-12T23:07:32.311Z,80.76
2018-02-12T23:10:00.471Z,80.42
2018-02-12T23:12:28.600Z,80.21
2018-02-12T23:14:56.740Z,80.70
2018-02-12T23:17:24.986Z,81.21
2018-02-12T23:19:53.192Z,81.21
2018-02-12T23:22:21.319Z,81.31
2018-02-12T23:24:49.406Z,81.14
2018-02-12T23:27:17.524Z,81.17
2018-02-12T23:29:45.622Z,81.54
2018-02-12T23:32:13.737Z,81.07
2018-02-12T23:34:43.790Z,81.25
2018-02-12T23:37:11.888Z,81.25
2018-02-12T23:39:40.013Z,81.23
2018-02-12T23:42:08.125Z,81.37
2018-02-12T23:44:36.245Z,81.47
2018-02-12T23:47:04.363Z,80.83
2018-02-12T23:49:32.471Z,81.07
2018-02-12T23:52:00.584Z,81.09
2018-02-12T23:54:28.714Z,81.68
2018-02-12T23:56:56.811Z,81.35
2018-02-12T23:59:24.911Z,81.51
